Time;durP1;ratioP1;P1;durP2;ratioP2;P2;SDS_P1;SDS_P2;PMS_P1;PMS_P2;Temp;Humidity;BMP_temperature;BMP_pressure;BME280_temperature;BME280_humidity;BME280_pressure;Samples;Min_cycle;Max_cycle;Signal;HPM_P1;HPM_P2
2022/06/18 00:02:23;;;;;;;7.65;2.63;;;23.30;35.20;;;23.59;32.50;98167.53;5023868;28;20052;-40
2022/06/18 00:04:51;;;;;;;2.72;2.40;;;23.20;35.60;;;23.50;32.81;98165.38;5023547;28;20078;-40
2022/06/18 00:07:22;;;;;;;2.90;2.60;;;23.00;36.20;;;23.33;33.23;98166.03;5023644;28;20045;-40
2022/06/18 00:10:01;;;;;;;2.90;2.60;;;22.90;37.60;;;23.24;33.73;98172.84;5021784;28;20056;-40
2022/06/18 00:15:29;;;;;;;4.70;2.80;;;22.50;37.90;;;23.00;34.52;98175.41;5023408;28;20064;-41
2022/06/18 00:17:57;;;;;;;3.85;2.67;;;22.40;39.10;;;22.92;34.04;98162.16;5023326;28;20054;-41
2022/06/18 00:20:31;;;;;;;4.35;3.03;;;22.40;38.40;;;22.85;34.86;98161.41;5023225;28;20053;-40
2022/06/18 00:23:01;;;;;;;4.95;2.90;;;22.30;39.10;;;22.82;34.45;98167.31;5021962;28;20053;-41
2022/06/18 00:25:36;;;;;;;4.78;2.85;;;22.30;38.90;;;22.75;35.08;98163.84;5022549;28;20081;-40
2022/06/18 00:28:12;;;;;;;6.50;2.97;;;22.20;39.50;;;22.67;35.27;98162.25;5022955;28;20329;-40
2022/06/18 00:30:41;;;;;;;3.65;2.40;;;22.10;39.50;;;22.57;34.91;98165.50;5022671;28;20054;-40
2022/06/18 00:33:09;;;;;;;3.03;2.50;;;22.10;39.40;;;22.53;35.09;98164.31;5023183;28;20113;-41
2022/06/18 00:35:38;;;;;;;3.85;2.50;;;22.10;39.40;;;22.50;35.50;98161.19;5021752;28;20059;-41
2022/06/18 00:38:13;;;;;;;4.05;2.80;;;22.00;39.60;;;22.44;35.55;98165.63;5022145;28;20056;-41
2022/06/18 00:40:43;;;;;;;3.75;2.58;;;21.90;40.00;;;22.41;35.49;98160.66;5023145;28;20052;-41
2022/06/18 00:43:23;;;;;;;3.17;2.40;;;21.90;40.20;;;22.36;36.03;98155.09;5022527;28;20048;-41
2022/06/18 00:45:57;;;;;;;3.45;2.92;;;21.90;40.80;;;22.32;36.10;98151.19;5021636;28;20060;-40
2022/06/18 00:48:35;;;;;;;3.30;3.00;;;21.80;40.70;;;22.31;36.49;98155.75;5021702;28;20379;-41
2022/06/18 00:51:14;;;;;;;3.92;3.10;;;21.80;41.80;;;22.26;36.90;98155.63;5021761;28;20050;-41
2022/06/18 00:54:14;;;;;;;3.83;2.88;;;21.70;41.50;;;22.16;37.34;98157.97;5023137;28;20053;-40
2022/06/18 00:57:15;;;;;;;4.00;2.40;;;21.60;42.70;;;22.03;37.56;98157.03;5009568;28;20049;-40
2022/06/18 01:00:02;;;;;;;3.25;2.95;;;21.50;43.40;;;21.88;37.69;98155.72;5021026;28;20050;-41
2022/06/18 01:02:43;;;;;;;2.95;2.42;;;21.30;43.70;;;21.81;37.43;98151.19;5021998;28;20046;-41
2022/06/18 01:05:25;;;;;;;3.40;2.67;;;21.20;43.30;;;21.81;37.47;98150.38;5021259;28;20083;-40
2022/06/18 01:07:59;;;;;;;3.17;2.83;;;21.30;43.20;;;21.81;37.26;98153.91;5021012;28;20045;-41
2022/06/18 01:10:35;;;;;;;3.03;2.67;;;21.30;42.40;;;21.80;37.52;98144.09;5004296;28;20056;-41
2022/06/18 01:13:11;;;;;;;4.13;2.95;;;21.30;42.60;;;21.74;37.96;98144.16;5005287;28;20049;-40
2022/06/18 01:15:46;;;;;;;4.22;3.10;;;21.30;42.90;;;21.66;37.57;98147.16;5005441;28;20247;-40
2022/06/18 01:18:15;;;;;;;3.15;2.70;;;21.10;42.70;;;21.60;37.97;98138.03;5021368;28;20348;-40
2022/06/18 01:20:57;;;;;;;2.83;2.40;;;21.10;42.70;;;21.58;37.88;98138.25;5021159;28;20053;-40
2022/06/18 01:23:52;;;;;;;3.78;2.70;;;21.10;43.10;;;21.54;37.88;98130.75;5005725;28;20351;-41
2022/06/18 01:26:21;;;;;;;3.35;2.20;;;21.20;43.10;;;21.52;37.85;98132.84;5022287;28;20248;-41
2022/06/18 01:28:49;;;;;;;3.13;2.72;;;21.10;42.70;;;21.47;37.95;98130.81;5004548;28;20067;-40
2022/06/18 01:31:18;;;;;;;2.85;2.50;;;21.00;42.60;;;21.48;38.11;98126.22;5021110;28;20055;-40
2022/06/18 01:33:49;;;;;;;3.22;2.55;;;21.00;42.80;;;21.49;38.09;98123.31;5021552;28;20049;-41
2022/06/18 01:36:20;;;;;;;;;;;21.10;42.60;;;21.46;38.51;98117.50;5022688;28;20045;-41
2022/06/18 01:38:48;;;;;;;4.22;3.25;;;21.10;43.50;;;21.52;38.01;98119.31;5020582;28;19923;-40
2022/06/18 01:44:31;;;;;;;4.32;2.92;;;21.10;43.30;;;21.47;38.08;98106.44;5020646;28;20056;-40
2022/06/18 01:47:08;;;;;;;2.75;2.53;;;21.00;43.20;;;21.42;38.00;98112.50;5022035;28;20045;-40
2022/06/18 01:49:54;;;;;;;3.22;2.42;;;20.90;43.70;;;21.33;38.89;98105.69;5020966;28;20064;-40
2022/06/18 01:52:26;;;;;;;3.00;2.17;;;20.90;43.90;;;21.26;38.36;98110.31;5006025;28;20052;-41
2022/06/18 01:55:11;;;;;;;2.95;2.50;;;20.80;43.90;;;21.23;38.60;98102.63;5005680;28;20056;-40
2022/06/18 01:57:49;;;;;;;2.58;2.30;;;20.80;43.80;;;21.12;39.00;98097.91;5023990;28;20050;-40
2022/06/18 02:00:25;;;;;;;4.20;2.50;;;20.70;44.00;;;21.14;38.35;98093.94;5009419;28;20050;-41
2022/06/18 02:03:02;;;;;;;3.05;2.30;;;20.80;42.90;;;21.22;37.96;98095.53;5024356;28;20056;-40
2022/06/18 02:05:32;;;;;;;2.67;2.47;;;20.90;42.10;;;21.29;37.88;98093.63;5025546;28;20045;-41
2022/06/18 02:08:00;;;;;;;3.85;2.33;;;21.10;41.60;;;21.38;37.28;98088.75;5025663;28;20053;-41
2022/06/18 02:10:43;;;;;;;4.05;2.78;;;21.20;41.10;;;21.48;37.14;98077.47;5023919;28;20054;-40
2022/06/18 02:13:12;;;;;;;2.55;2.28;;;21.30;41.70;;;21.54;37.29;98077.44;5009479;28;20053;-41
2022/06/18 02:15:45;;;;;;;3.20;2.47;;;21.40;40.50;;;21.62;36.75;98070.91;5024680;28;20042;-40
2022/06/18 02:18:16;;;;;;;5.45;2.50;;;21.50;40.30;;;21.65;37.06;98067.75;5024083;28;20046;-40
2022/06/18 02:20:53;;;;;;;2.75;2.50;;;21.50;40.20;;;21.66;36.83;98071.28;5024781;28;20185;-40
2022/06/18 02:23:23;;;;;;;3.03;2.50;;;21.50;40.30;;;21.68;36.58;98063.78;5025087;28;20251;-40
2022/06/18 02:25:52;;;;;;;2.85;2.22;;;21.50;40.20;;;21.73;36.49;98066.63;5025519;28;20046;-41
2022/06/18 02:28:30;;;;;;;4.93;2.53;;;21.60;40.00;;;21.77;36.60;98062.41;5025767;28;20056;-41
2022/06/18 02:31:01;;;;;;;2.47;2.28;;;21.60;39.80;;;21.79;36.32;98057.59;5024461;28;20045;-41
2022/06/18 02:33:49;;;;;;;2.53;2.33;;;21.70;39.70;;;21.86;36.24;98061.09;5024235;28;20045;-41
2022/06/18 02:36:24;;;;;;;3.75;2.30;;;21.70;39.50;;;21.90;36.22;98065.00;5024451;28;20050;-40
2022/06/18 02:39:13;;;;;;;3.88;2.40;;;21.80;39.30;;;21.94;35.79;98058.06;5025616;28;20064;-40
2022/06/18 02:41:43;;;;;;;2.90;2.58;;;21.80;39.30;;;21.98;36.15;98064.72;5024502;28;20271;-40
2022/06/18 02:44:13;;;;;;;3.42;3.08;;;21.80;39.20;;;22.02;36.03;98065.94;5023816;28;20057;-41
2022/06/18 02:46:42;;;;;;;3.17;2.70;;;21.90;39.30;;;22.05;36.17;98064.66;5025174;28;20045;-40
2022/06/18 02:49:12;;;;;;;2.95;2.65;;;21.90;39.20;;;22.09;36.23;98051.47;5024684;28;20048;-41
2022/06/18 02:51:41;;;;;;;3.30;2.92;;;21.90;39.30;;;22.13;35.89;98060.81;5025141;28;20042;-40
2022/06/18 02:54:10;;;;;;;3.50;3.00;;;22.00;39.20;;;22.16;36.14;98065.78;5023597;28;20064;-40
2022/06/18 02:56:38;;;;;;;2.83;2.40;;;22.00;39.10;;;22.20;35.93;98064.28;5025105;28;20347;-40
2022/06/18 02:59:07;;;;;;;2.85;2.50;;;22.00;39.00;;;22.19;36.05;98066.16;5023935;28;20058;-40
2022/06/18 03:01:35;;;;;;;3.85;2.78;;;22.10;39.20;;;22.19;36.27;98065.31;5023782;28;20053;-41
2022/06/18 03:04:04;;;;;;;4.25;2.90;;;22.00;39.20;;;22.18;35.82;98069.09;5025096;28;20056;-40
2022/06/18 03:06:33;;;;;;;2.45;2.25;;;22.00;39.20;;;22.16;36.23;98065.78;5024371;28;20050;-41
2022/06/18 03:09:02;;;;;;;4.78;3.28;;;22.00;39.30;;;22.15;36.22;98064.13;5023377;28;20054;-41
2022/06/18 03:14:18;;;;;;;2.95;2.67;;;21.90;39.50;;;22.08;36.20;98060.66;5023981;28;20062;-41
2022/06/18 03:16:49;;;;;;;3.08;2.78;;;21.90;39.70;;;22.01;36.38;98055.31;5007658;28;20344;-40
2022/06/18 03:19:39;;;;;;;3.65;2.83;;;21.80;39.80;;;21.95;36.38;98059.75;5023203;28;20056;-41
2022/06/18 03:22:20;;;;;;;5.22;2.97;;;21.70;40.70;;;21.92;36.59;98062.88;5007802;28;20128;-40
2022/06/18 03:24:48;;;;;;;3.03;2.65;;;21.60;40.90;;;21.87;36.67;98059.19;5023072;28;20053;-40
2022/06/18 03:27:17;;;;;;;8.43;2.97;;;21.50;40.50;;;21.82;36.96;98063.41;5023291;28;20057;-41
2022/06/18 03:29:52;;;;;;;4.15;3.15;;;21.50;40.80;;;21.78;36.52;98067.63;5023112;28;20057;-40
2022/06/18 03:32:22;;;;;;;3.10;2.60;;;21.40;40.70;;;21.76;36.82;98067.00;5039332;28;20050;-41
2022/06/18 03:34:51;;;;;;;4.50;2.67;;;21.40;40.80;;;21.73;36.73;98075.59;5022871;28;20283;-40
2022/06/18 03:37:20;;;;;;;3.90;2.85;;;21.40;40.70;;;21.76;36.89;98077.84;5007402;28;20221;-41
2022/06/18 03:39:49;;;;;;;3.55;2.85;;;21.50;40.60;;;21.74;37.03;98076.44;5022953;28;20072;-41
2022/06/18 03:42:17;;;;;;;3.95;3.40;;;21.50;40.80;;;21.69;37.10;98071.66;5022978;28;20058;-41
2022/06/18 03:44:45;;;;;;;3.25;2.85;;;21.40;40.90;;;21.70;37.05;98076.03;5023190;28;20064;-41
2022/06/18 03:47:13;;;;;;;4.05;3.22;;;21.40;40.90;;;21.68;37.23;98083.56;5022060;28;20075;-40
2022/06/18 03:49:42;;;;;;;3.20;2.90;;;21.40;40.90;;;21.68;36.77;98080.03;5022460;28;20366;-40
2022/06/18 03:52:11;;;;;;;3.22;2.92;;;21.40;41.30;;;21.60;37.22;98092.78;5022963;28;20054;-40
2022/06/18 03:54:39;;;;;;;3.20;2.88;;;21.30;41.60;;;21.60;37.39;98095.50;5023145;28;20056;-40
2022/06/18 03:57:18;;;;;;;6.85;2.72;;;21.30;41.40;;;21.61;37.34;98094.44;5024666;28;20076;-40
2022/06/18 03:59:47;;;;;;;4.40;3.20;;;21.30;41.60;;;21.63;37.07;98091.50;5022768;28;20057;-40
2022/06/18 04:02:16;;;;;;;3.75;2.95;;;21.30;41.20;;;21.66;37.13;98092.97;5022498;28;20060;-41
2022/06/18 04:04:44;;;;;;;3.15;2.80;;;21.40;41.20;;;21.63;37.17;98095.06;5022711;28;20060;-40
2022/06/18 04:07:18;;;;;;;5.13;3.03;;;21.30;41.30;;;21.63;37.27;98095.06;5022585;28;20053;-40
2022/06/18 04:10:15;;;;;;;3.00;2.70;;;21.30;41.40;;;21.66;37.75;98091.09;5014340;28;20057;-41
2022/06/18 04:12:46;;;;;;;3.47;2.70;;;21.40;41.40;;;21.69;37.16;98098.75;5022372;28;20344;-40
2022/06/18 04:15:39;;;;;;;;;;;21.40;41.10;;;21.70;37.30;98091.47;5025914;28;20044;-40
2022/06/18 04:18:17;;;;;;;4.45;3.17;;;21.50;41.60;;;21.74;37.26;98092.69;5021183;28;20047;-40
2022/06/18 04:20:45;;;;;;;3.35;3.05;;;21.50;41.00;;;21.78;37.33;98088.47;5022521;28;20060;-41
2022/06/18 04:23:15;;;;;;;3.65;2.92;;;21.50;40.80;;;21.82;36.86;98092.41;5022627;28;20050;-40
2022/06/18 04:25:45;;;;;;;3.33;3.03;;;21.60;40.80;;;21.82;36.96;98092.41;5022036;28;20056;-40
2022/06/18 04:28:17;;;;;;;3.10;2.65;;;21.60;40.70;;;21.81;37.30;98093.47;5022651;28;20352;-41
2022/06/18 04:30:53;;;;;;;2.92;2.60;;;21.60;40.90;;;21.82;37.34;98095.09;5022448;28;20050;-40
2022/06/18 04:33:32;;;;;;;3.15;2.15;;;21.60;40.80;;;21.83;37.25;98096.78;5022371;28;20054;-40
2022/06/18 04:36:34;;;;;;;2.92;2.63;;;21.60;40.60;;;21.87;36.84;98095.28;5025401;28;20243;-40
2022/06/18 04:39:24;;;;;;;;;;;21.70;41.00;;;21.88;37.09;98090.69;5026090;28;20064;-40
2022/06/18 04:42:20;;;;;;;2.83;2.50;;;21.70;41.00;;;21.96;37.02;98096.63;5023407;28;20127;-41
2022/06/18 04:44:48;;;;;;;3.65;2.90;;;21.70;40.90;;;21.99;37.70;98098.06;5022288;28;20060;-40
2022/06/18 04:47:25;;;;;;;4.50;3.38;;;21.80;41.50;;;22.00;37.74;98100.56;5021940;28;20056;-40
2022/06/18 04:49:53;;;;;;;3.65;3.35;;;21.80;41.90;;;22.02;37.98;98094.91;5021194;28;20051;-41
2022/06/18 04:52:22;;;;;;;2.78;2.58;;;21.80;42.30;;;22.03;38.83;98091.97;5022951;28;20067;-40
2022/06/18 04:54:58;;;;;;;3.53;3.20;;;21.80;42.80;;;22.03;38.84;98097.41;5021848;28;20344;-40
2022/06/18 04:57:28;;;;;;;9.80;3.15;;;21.90;43.30;;;22.09;39.08;98100.28;5005810;28;20056;-40
2022/06/18 04:59:56;;;;;;;3.70;3.05;;;21.90;43.80;;;22.10;39.27;98093.78;5021843;28;20374;-40
2022/06/18 05:02:29;;;;;;;6.95;3.47;;;21.90;44.10;;;22.12;39.67;98094.38;5022077;28;20053;-41
2022/06/18 05:05:15;;;;;;;4.18;2.75;;;21.90;44.80;;;22.13;39.54;98096.06;5022623;28;20046;-40
2022/06/18 05:08:01;;;;;;;4.55;2.92;;;21.90;44.40;;;22.14;39.77;98100.41;5021543;28;20053;-41
2022/06/18 05:11:07;;;;;;;3.85;3.08;;;21.90;44.30;;;22.13;39.33;98094.16;5021373;28;20045;-41
2022/06/18 05:13:48;;;;;;;6.38;3.13;;;21.90;44.20;;;22.14;39.52;98100.41;5021460;28;20050;-40
2022/06/18 05:16:29;;;;;;;4.40;3.47;;;21.90;44.50;;;22.14;39.84;98093.13;5022747;28;20058;-40
2022/06/18 05:18:57;;;;;;;5.00;3.35;;;22.00;44.40;;;22.16;39.59;98101.88;5022242;28;20061;-40
2022/06/18 05:21:26;;;;;;;4.15;3.30;;;21.90;44.50;;;22.18;40.06;98098.94;5021166;28;20352;-40
2022/06/18 05:23:56;;;;;;;5.13;3.35;;;22.00;44.80;;;22.20;40.16;98088.69;5021826;28;20248;-40
2022/06/18 05:26:24;;;;;;;3.00;2.70;;;22.00;45.10;;;22.21;40.51;98093.88;5005383;28;20064;-41
2022/06/18 05:28:53;;;;;;;3.40;2.53;;;22.00;45.20;;;22.22;40.22;98086.59;5021733;28;20060;-41
2022/06/18 05:31:20;;;;;;;3.83;3.42;;;22.00;45.20;;;22.19;40.49;98085.13;5020639;28;20060;-41
2022/06/18 05:33:49;;;;;;;2.95;2.72;;;22.00;45.10;;;22.23;40.64;98082.81;5021767;28;20054;-41
2022/06/18 05:36:19;;;;;;;4.43;2.92;;;22.10;45.20;;;22.27;40.11;98081.31;5021118;28;20060;-40
2022/06/18 05:38:53;;;;;;;4.80;3.40;;;22.10;45.00;;;22.32;40.24;98080.66;5021325;28;20263;-41
2022/06/18 05:41:22;;;;;;;3.47;3.00;;;22.20;45.20;;;22.36;40.61;98079.16;5021130;28;20061;-41
2022/06/18 05:43:50;;;;;;;4.03;2.80;;;22.30;45.80;;;22.41;41.30;98079.28;5020642;28;20054;-40
2022/06/18 05:46:18;;;;;;;2.72;2.50;;;22.30;46.40;;;22.47;41.25;98080.25;5021963;28;20050;-40
2022/06/18 05:48:47;;;;;;;3.50;2.78;;;22.40;46.40;;;22.51;41.16;98087.72;5020767;28;20060;-40
2022/06/18 05:51:15;;;;;;;5.10;3.33;;;22.50;46.40;;;22.58;41.46;98084.94;5022163;28;20112;-41
2022/06/18 05:53:44;;;;;;;3.25;2.95;;;22.50;46.50;;;22.61;41.57;98088.00;5020876;28;20060;-40
2022/06/18 05:56:32;;;;;;;3.53;3.20;;;22.60;46.60;;;22.66;41.73;98081.91;5020778;28;20050;-40
2022/06/18 05:59:20;;;;;;;5.10;4.25;;;22.70;46.80;;;22.74;41.71;98084.31;5040924;28;20240;-40
2022/06/18 06:01:48;;;;;;;3.70;3.33;;;22.70;46.80;;;22.79;41.80;98080.91;5022683;28;20050;-40
2022/06/18 06:04:19;;;;;;;6.38;3.13;;;22.80;46.90;;;22.85;41.74;98079.16;5020734;28;20062;-40
2022/06/18 06:06:53;;;;;;;3.65;3.35;;;22.80;47.10;;;22.89;42.19;98081.19;5021151;28;20636;-40
2022/06/18 06:12:11;;;;;;;6.53;3.67;;;22.90;47.40;;;22.98;42.15;98082.50;5020260;28;20076;-40
2022/06/18 06:14:41;;;;;;;3.47;3.08;;;23.00;47.70;;;23.02;42.60;98079.34;5020967;28;20050;-40
2022/06/18 06:17:23;;;;;;;3.90;3.50;;;23.00;48.30;;;23.07;43.20;98080.34;5021842;28;20336;-40
2022/06/18 06:19:54;;;;;;;4.28;3.80;;;23.00;50.80;;;23.10;44.04;98079.06;5021783;28;20247;-40
2022/06/18 06:22:21;;;;;;;8.35;4.32;;;23.00;50.00;;;23.12;44.42;98085.91;5021908;28;20054;-40
2022/06/18 06:24:49;;;;;;;7.82;4.03;;;23.10;50.60;;;23.16;44.42;98084.38;5021723;28;20053;-40
2022/06/18 06:27:17;;;;;;;4.82;3.50;;;23.10;51.00;;;23.21;44.87;98080.16;5022317;28;20049;-40
2022/06/18 06:29:45;;;;;;;6.88;3.40;;;23.20;51.40;;;23.25;45.13;98078.63;5021687;28;20057;-40
2022/06/18 06:32:13;;;;;;;5.00;3.30;;;23.30;51.90;;;23.28;45.63;98075.44;5021588;28;20332;-40
2022/06/18 06:34:41;;;;;;;4.85;3.78;;;23.30;52.30;;;23.34;45.98;98074.50;5021606;28;20332;-40
2022/06/18 06:37:10;;;;;;;3.67;3.38;;;23.30;52.60;;;23.39;46.57;98075.44;5021852;28;20042;-40
2022/06/18 06:39:38;;;;;;;4.15;3.22;;;23.40;53.10;;;23.43;46.70;98070.38;5021367;28;20052;-40
2022/06/18 06:42:06;;;;;;;3.60;3.25;;;23.50;53.30;;;23.49;46.30;98069.44;5022687;28;20362;-40
2022/06/18 06:44:35;;;;;;;5.97;4.22;;;23.50;53.30;;;23.54;46.22;98071.47;5024218;28;20057;-40
2022/06/18 06:47:03;;;;;;;4.00;3.60;;;23.60;52.70;;;23.59;46.46;98077.00;5025346;28;20352;-40
2022/06/18 06:49:31;;;;;;;5.10;3.33;;;23.60;53.00;;;23.64;44.91;98076.31;5023587;28;20374;-40
2022/06/18 06:51:59;;;;;;;5.07;3.40;;;23.70;51.10;;;23.68;43.94;98066.63;5024960;28;20052;-40
2022/06/18 06:54:27;;;;;;;5.10;3.30;;;23.80;49.60;;;23.71;43.87;98064.28;5025729;28;20052;-41
2022/06/18 06:57:29;;;;;;;5.65;3.30;;;23.80;49.10;;;23.76;43.60;98063.56;5025195;28;20362;-40
2022/06/18 06:59:49;;;;;;;4.15;3.40;;;23.80;48.80;;;23.83;43.06;98067.03;5025447;28;20062;-41
2022/06/18 07:02:21;;;;;;;4.90;3.22;;;23.90;48.30;;;23.87;43.01;98068.22;5025058;28;20056;-40
2022/06/18 07:04:48;;;;;;;4.35;3.40;;;24.00;47.90;;;23.92;42.77;98075.66;5024689;28;20049;-40
2022/06/18 07:07:16;;;;;;;3.92;3.10;;;24.00;47.80;;;23.96;42.51;98069.50;5024923;28;20052;-40
2022/06/18 07:09:45;;;;;;;4.43;3.30;;;24.10;47.50;;;24.03;42.53;98076.72;5023727;28;20053;-40
2022/06/18 07:12:12;;;;;;;4.82;3.20;;;24.20;47.30;;;24.09;42.22;98068.41;5024672;28;20048;-40
2022/06/18 07:14:40;;;;;;;3.00;2.50;;;24.20;47.10;;;24.15;42.78;98072.09;5024613;28;20049;-40
2022/06/18 07:17:17;;;;;;;7.00;3.15;;;24.30;47.90;;;24.24;43.54;98069.84;5024628;28;20045;-40
2022/06/18 07:19:45;;;;;;;4.68;3.85;;;24.40;49.30;;;24.30;43.63;98077.84;5024406;28;20061;-40
2022/06/18 07:22:13;;;;;;;4.45;3.30;;;24.40;49.20;;;24.36;43.98;98071.44;5024598;28;20049;-41
2022/06/18 07:24:41;;;;;;;3.67;3.33;;;24.50;49.60;;;24.44;44.31;98075.69;5024785;28;20057;-41
2022/06/18 07:27:09;;;;;;;3.83;3.42;;;24.60;49.80;;;24.48;44.41;98070.59;5024338;28;20042;-40
2022/06/18 07:29:37;;;;;;;3.95;3.50;;;24.70;50.20;;;24.56;44.18;98067.53;5024286;28;20046;-40
2022/06/18 07:32:16;;;;;;;3.63;3.33;;;24.70;49.60;;;24.61;43.88;98069.53;5024324;28;20390;-40
2022/06/18 07:34:44;;;;;;;3.38;3.08;;;24.80;49.60;;;24.66;43.62;98058.75;5024291;28;20052;-41
2022/06/18 07:37:12;;;;;;;6.43;3.70;;;24.80;48.90;;;24.72;43.56;98060.50;5024206;28;20048;-40
2022/06/18 07:39:41;;;;;;;4.63;3.35;;;24.90;49.10;;;24.78;43.42;98067.72;5024159;28;20042;-40
2022/06/18 07:42:10;;;;;;;4.00;3.60;;;24.90;48.70;;;24.82;43.56;98059.88;5023932;28;20060;-40
2022/06/18 07:44:38;;;;;;;4.60;3.42;;;25.00;48.90;;;24.87;43.08;98055.38;5024525;28;20052;-41
2022/06/18 07:47:06;;;;;;;4.05;3.42;;;25.10;48.30;;;24.91;43.13;98055.69;5023973;28;20052;-41
2022/06/18 07:49:34;;;;;;;3.70;3.15;;;25.10;48.20;;;24.97;43.02;98052.00;5023535;28;20049;-40
2022/06/18 07:52:02;;;;;;;8.55;3.45;;;25.10;48.20;;;25.03;42.77;98047.44;5024279;28;20050;-41
2022/06/18 07:54:30;;;;;;;5.35;3.42;;;25.20;47.90;;;25.08;42.65;98047.56;5023892;28;20055;-41
2022/06/18 07:56:58;;;;;;;4.75;3.65;;;25.30;47.50;;;25.12;42.38;98043.25;5024032;28;20049;-41
2022/06/18 07:59:26;;;;;;;4.05;3.40;;;25.30;47.20;;;25.17;42.25;98054.25;5023577;28;20038;-40
2022/06/18 08:01:54;;;;;;;3.95;3.13;;;25.40;47.00;;;25.22;42.13;98051.66;5024241;28;20054;-41
2022/06/18 08:04:21;;;;;;;3.90;3.50;;;25.40;46.80;;;25.26;41.77;98051.97;5023786;28;20050;-40
2022/06/18 08:06:49;;;;;;;4.00;3.25;;;25.40;46.40;;;25.32;41.77;98049.09;5023856;28;20247;-41
2022/06/18 08:09:17;;;;;;;5.55;3.60;;;25.40;46.20;;;25.37;41.50;98045.63;5023373;28;20050;-41
2022/06/18 08:11:45;;;;;;;3.50;3.20;;;25.50;45.80;;;25.41;41.32;98052.22;5022512;28;20053;-40
2022/06/18 08:14:13;;;;;;;5.38;3.20;;;25.60;45.80;;;25.46;41.03;98051.50;5023655;28;20044;-40
2022/06/18 08:16:42;;;;;;;5.53;3.78;;;25.60;45.20;;;25.52;41.16;98043.16;5023960;28;20128;-41
2022/06/18 08:19:11;;;;;;;3.90;3.45;;;25.70;45.20;;;25.59;40.57;98043.00;5023217;28;20048;-40
2022/06/18 08:21:46;;;;;;;4.13;3.35;;;25.80;44.70;;;25.64;40.58;98042.25;5023623;28;20060;-40
2022/06/18 08:24:20;;;;;;;4.10;3.45;;;25.80;44.50;;;25.71;40.05;98040.19;5023450;28;20062;-41
2022/06/18 08:26:50;;;;;;;4.60;2.97;;;25.90;43.60;;;25.76;39.75;98037.50;5022376;28;20045;-41
2022/06/18 08:29:23;;;;;;;4.93;3.50;;;25.90;43.40;;;25.85;39.55;98037.94;5022131;28;20054;-41
2022/06/18 08:31:52;;;;;;;4.38;3.00;;;26.00;43.70;;;25.90;39.39;98037.97;5023844;28;20217;-40
2022/06/18 08:34:20;;;;;;;3.28;2.95;;;26.10;43.40;;;25.93;39.05;98030.16;5023087;28;20045;-41
2022/06/18 08:36:55;;;;;;;4.25;3.38;;;26.20;42.90;;;26.00;38.48;98029.16;5023567;28;20052;-41
2022/06/18 08:39:23;;;;;;;4.13;3.30;;;26.20;42.10;;;26.06;38.45;98023.53;5021970;28;20052;-41
2022/06/18 08:42:07;;;;;;;4.38;2.63;;;26.20;41.80;;;26.11;37.60;98018.16;5023067;28;20056;-41
2022/06/18 08:45:08;;;;;;;4.57;3.33;;;26.30;40.90;;;26.19;37.67;98019.63;5021649;28;20120;-41
2022/06/18 08:47:57;;;;;;;4.10;3.00;;;26.40;40.90;;;26.24;37.32;98016.94;5022794;28;20060;-41
2022/06/18 08:51:07;;;;;;;2.88;2.58;;;26.50;39.80;;;26.32;37.60;98012.94;5021846;28;20073;-40
2022/06/18 08:54:06;;;;;;;3.42;3.13;;;26.50;41.20;;;26.41;37.27;98018.78;5022572;28;20050;-41
2022/06/18 08:56:51;;;;;;;3.97;2.90;;;26.60;39.80;;;26.43;35.44;98016.63;5022936;28;20348;-41
2022/06/18 08:59:58;;;;;;;3.47;2.80;;;26.70;38.30;;;26.47;36.23;98009.56;5022067;28;20240;-41
2022/06/18 09:03:01;;;;;;;2.70;2.50;;;26.70;37.70;;;26.57;36.02;98011.59;5022687;28;20232;-41
2022/06/18 09:06:03;;;;;;;4.30;3.00;;;26.80;37.90;;;26.64;35.36;98001.34;5021273;28;20046;-41
2022/06/18 09:08:56;;;;;;;5.22;2.65;;;26.80;37.40;;;26.71;35.30;98010.97;5022517;28;20056;-40
2022/06/18 09:11:42;;;;;;;2.83;2.58;;;26.90;37.60;;;26.77;35.22;98002.81;5022160;28;20057;-40
2022/06/18 09:14:20;;;;;;;4.35;3.40;;;26.90;37.90;;;26.81;34.73;97999.34;5022604;28;20060;-41
2022/06/18 09:17:14;;;;;;;3.95;2.70;;;27.00;37.80;;;26.85;34.51;98002.34;5022829;28;20275;-41
2022/06/18 09:19:50;;;;;;;3.90;2.90;;;27.10;36.20;;;26.90;34.10;98005.13;5021358;28;20056;-41
2022/06/18 09:22:20;;;;;;;2.50;2.30;;;27.10;36.50;;;26.96;33.88;97998.63;5021549;28;20050;-41
2022/06/18 09:24:57;;;;;;;2.88;2.67;;;27.10;36.30;;;27.02;33.18;98000.31;5022290;28;20336;-40
2022/06/18 09:27:40;;;;;;;3.45;2.67;;;27.20;36.10;;;27.07;33.16;98005.84;5021350;28;20279;-41
2022/06/18 09:30:16;;;;;;;5.45;2.70;;;27.30;35.80;;;27.10;33.17;97996.28;5021128;28;20050;-41
2022/06/18 09:32:54;;;;;;;3.40;2.75;;;27.30;35.30;;;27.15;32.65;97992.81;5021089;28;20045;-41
2022/06/18 09:35:41;;;;;;;2.45;2.25;;;27.30;34.70;;;27.17;32.33;97999.66;5022471;28;20050;-41
2022/06/18 09:38:27;;;;;;;3.15;2.47;;;27.40;34.50;;;27.21;32.05;97999.94;5022049;28;20366;-41
2022/06/18 09:41:04;;;;;;;3.20;2.88;;;27.40;33.20;;;27.26;30.89;97997.31;5022671;28;20054;-41
2022/06/18 09:43:57;;;;;;;3.25;2.80;;;27.40;33.00;;;27.34;30.36;98002.28;5021079;28;20045;-41
2022/06/18 09:46:30;;;;;;;3.45;2.97;;;27.50;32.10;;;27.42;31.15;97988.13;5022321;28;20052;-41
2022/06/18 09:48:58;;;;;;;3.33;2.40;;;27.60;32.60;;;27.44;30.57;97994.16;5022043;28;20053;-42
2022/06/18 09:51:45;;;;;;;3.42;2.88;;;27.60;32.60;;;27.55;30.78;97986.00;5021330;28;20054;-41
2022/06/18 09:54:16;;;;;;;2.67;2.40;;;27.80;31.80;;;27.60;30.47;97981.41;5020937;28;20042;-41
2022/06/18 09:56:52;;;;;;;2.90;2.22;;;27.80;32.00;;;27.68;30.12;97980.94;5020935;28;20274;-41
2022/06/18 09:59:28;;;;;;;2.30;2.10;;;27.90;31.00;;;27.76;29.85;97982.34;5020828;28;20050;-41
2022/06/18 10:01:58;;;;;;;2.47;2.28;;;28.00;30.60;;;27.81;29.63;97985.09;5022779;28;20049;-41
2022/06/18 10:07:24;;;;;;;2.95;2.72;;;28.10;30.20;;;27.89;29.14;97970.13;5022045;28;20042;-41
2022/06/18 10:09:59;;;;;;;2.47;2.20;;;28.20;30.70;;;27.96;29.61;97964.44;5021139;28;20046;-41
2022/06/18 10:12:38;;;;;;;4.28;2.70;;;28.30;31.00;;;28.05;28.96;97968.28;5021897;28;20344;-40
2022/06/18 10:15:12;;;;;;;3.05;2.75;;;28.30;30.10;;;28.12;28.59;97962.56;5021941;28;20337;-41
2022/06/18 10:18:23;;;;;;;2.72;2.50;;;28.40;29.50;;;28.17;28.04;97957.09;5023463;28;20052;-41
2022/06/18 10:21:36;;;;;;;2.78;2.45;;;28.50;29.70;;;28.24;28.20;97946.75;5026067;28;20057;-40
2022/06/18 10:24:14;;;;;;;4.70;2.75;;;28.60;29.40;;;28.33;28.36;97945.13;5025709;28;20240;-41
2022/06/18 10:27:18;;;;;;;4.07;3.35;;;28.60;30.00;;;28.42;29.06;97939.94;5025568;28;20361;-38
2022/06/18 10:30:16;;;;;;;5.63;3.25;;;28.70;30.40;;;28.53;29.71;97932.63;5025453;28;20056;-41
2022/06/18 10:32:46;;;;;;;4.38;3.50;;;28.80;31.10;;;28.62;29.89;97925.53;5024406;28;20045;-41
2022/06/18 10:35:38;;;;;;;3.40;3.10;;;28.90;31.50;;;28.75;29.91;97927.72;5025468;28;20366;-41
2022/06/18 10:38:49;;;;;;;8.02;3.22;;;29.00;31.80;;;28.82;29.58;97921.97;5025361;28;20048;-40
2022/06/18 10:41:32;;;;;;;4.13;3.58;;;29.10;31.70;;;28.90;30.00;97923.34;5025474;28;20049;-41
2022/06/18 10:44:27;;;;;;;4.35;3.10;;;29.20;32.40;;;28.95;29.37;97926.91;5025202;28;20248;-40
2022/06/18 10:47:08;;;;;;;3.90;3.10;;;29.20;31.10;;;29.02;30.18;97921.13;5025437;28;20053;-41
2022/06/18 10:49:37;;;;;;;3.70;3.40;;;29.30;32.50;;;29.09;30.51;97915.41;5025146;28;20042;-41
2022/06/18 10:52:15;;;;;;;5.65;3.78;;;29.40;32.60;;;29.17;30.38;97915.69;5025263;28;20045;-41
2022/06/18 10:54:43;;;;;;;3.88;3.22;;;29.50;32.50;;;29.20;29.99;97906.91;5024215;28;20048;-41
2022/06/18 10:57:24;;;;;;;4.35;3.63;;;29.50;32.20;;;29.29;30.02;97900.88;5025818;28;20056;-41
2022/06/18 10:59:52;;;;;;;5.15;3.50;;;29.60;31.90;;;29.31;30.15;97902.22;5025238;28;20248;-40
2022/06/18 11:02:38;;;;;;;5.38;3.63;;;29.70;32.30;;;29.34;29.67;97904.44;5025112;28;20050;-41
2022/06/18 11:05:33;;;;;;;3.80;3.47;;;29.70;31.50;;;29.41;29.74;97902.22;5025005;28;20245;-39
2022/06/18 11:08:20;;;;;;;4.05;3.40;;;29.80;31.50;;;29.54;29.55;97902.75;5025379;28;20050;-39
2022/06/18 11:11:03;;;;;;;3.60;3.30;;;29.90;31.50;;;29.63;29.17;97898.34;5025036;28;20050;-39